createdAt,value
2019-05-15T00:00:02.639Z,19.59
2019-05-15T00:01:04.749Z,19.63
2019-05-15T00:02:10.810Z,19.74
2019-05-15T00:03:14.280Z,19.73
2019-05-15T00:04:18.548Z,19.79
2019-05-15T00:05:20.750Z,19.67
2019-05-15T00:06:23.215Z,19.69
2019-05-15T00:07:25.571Z,19.78
2019-05-15T00:08:28.894Z,19.75
2019-05-15T00:09:30.834Z,19.74
2019-05-15T00:10:33.302Z,19.76
2019-05-15T00:11:38.767Z,19.80
2019-05-15T00:12:40.595Z,19.75
2019-05-15T00:13:42.834Z,19.78
2019-05-15T00:14:45.026Z,19.88
2019-05-15T00:15:48.111Z,19.80
2019-05-15T00:16:50.706Z,19.89
2019-05-15T00:17:54.623Z,19.99
2019-05-15T00:18:59.105Z,19.84
2019-05-15T00:20:02.761Z,19.93
2019-05-15T00:21:05.319Z,19.99
2019-05-15T00:22:08.606Z,19.90
2019-05-15T00:23:11.134Z,19.86
2019-05-15T00:24:13.762Z,19.75
2019-05-15T00:25:18.684Z,19.72
2019-05-15T00:26:20.606Z,19.72
2019-05-15T00:27:22.890Z,19.72
2019-05-15T00:28:25.260Z,19.77
2019-05-15T00:29:28.887Z,19.92
2019-05-15T00:30:31.796Z,19.83
2019-05-15T00:31:33.853Z,19.90
2019-05-15T00:32:38.991Z,19.94
2019-05-15T00:33:41.137Z,19.86
2019-05-15T00:34:43.385Z,19.83
2019-05-15T00:35:48.427Z,19.84
2019-05-15T00:36:50.473Z,19.87
2019-05-15T00:37:53.181Z,20.00
2019-05-15T00:38:55.702Z,19.93
2019-05-15T00:39:59.237Z,19.89
2019-05-15T00:41:01.860Z,19.90
2019-05-15T00:42:08.149Z,19.96
2019-05-15T00:43:10.684Z,20.03
2019-05-15T00:44:13.049Z,19.98
2019-05-15T00:45:18.538Z,20.00
2019-05-15T00:46:21.156Z,19.99
2019-05-15T00:47:23.354Z,20.08
2019-05-15T00:48:25.298Z,20.12
2019-05-15T00:49:28.871Z,20.14
2019-05-15T00:50:31.410Z,20.12
2019-05-15T00:51:34.303Z,20.21
2019-05-15T00:52:39.032Z,20.28
2019-05-15T00:53:42.024Z,20.16
2019-05-15T00:54:44.276Z,20.24
2019-05-15T00:55:48.539Z,20.12
2019-05-15T00:56:50.854Z,19.96
2019-05-15T00:57:52.558Z,20.08
2019-05-15T00:58:55.213Z,20.01
2019-05-15T00:59:58.990Z,20.04
2019-05-15T01:01:01.455Z,20.15
2019-05-15T01:02:04.406Z,20.05
2019-05-15T01:03:08.703Z,20.01
2019-05-15T01:04:11.410Z,20.00
2019-05-15T01:05:14.045Z,19.92
2019-05-15T01:06:16.233Z,20.03
2019-05-15T01:07:18.899Z,20.07
2019-05-15T01:08:21.218Z,20.09
2019-05-15T01:09:22.945Z,19.95
2019-05-15T01:10:28.701Z,19.92
2019-05-15T01:11:31.401Z,19.91
2019-05-15T01:12:34.119Z,19.81
2019-05-15T01:13:35.792Z,19.84
2019-05-15T01:14:38.566Z,19.88
2019-05-15T01:15:42.691Z,19.96
2019-05-15T01:16:44.865Z,20.03
2019-05-15T01:17:49.044Z,19.89
2019-05-15T01:18:50.914Z,19.97
2019-05-15T01:19:53.213Z,20.03
2019-05-15T01:20:55.518Z,19.96
2019-05-15T01:21:58.661Z,19.90
2019-05-15T01:23:01.622Z,19.71
2019-05-15T01:24:05.259Z,19.86
2019-05-15T01:25:08.669Z,19.72
2019-05-15T01:26:11.113Z,19.71
2019-05-15T01:27:13.690Z,19.87
2019-05-15T01:28:15.560Z,19.86
2019-05-15T01:29:19.032Z,19.72
2019-05-15T01:30:22.823Z,19.71
2019-05-15T01:31:24.514Z,19.83
2019-05-15T01:32:28.384Z,19.79
2019-05-15T01:33:30.777Z,19.86
2019-05-15T01:34:33.145Z,19.91
2019-05-15T01:35:35.481Z,20.03
2019-05-15T01:36:38.238Z,19.89
2019-05-15T01:37:40.820Z,19.92
2019-05-15T01:38:43.438Z,19.93
2019-05-15T01:39:45.236Z,20.03
2019-05-15T01:40:48.502Z,19.97
2019-05-15T01:41:51.096Z,20.07
2019-05-15T01:42:52.754Z,20.05
2019-05-15T01:43:55.085Z,20.03
2019-05-15T01:44:58.941Z,20.08
2019-05-15T01:46:01.381Z,20.03
2019-05-15T01:47:03.678Z,20.18
2019-05-15T01:48:08.176Z,20.01
2019-05-15T01:49:11.674Z,20.00
2019-05-15T01:50:14.606Z,20.04
2019-05-15T01:51:18.484Z,20.11
2019-05-15T01:52:20.307Z,20.16
2019-05-15T01:53:23.163Z,20.08
2019-05-15T01:54:25.424Z,20.10
2019-05-15T01:55:28.396Z,20.11
2019-05-15T01:56:30.978Z,20.18
2019-05-15T01:57:32.717Z,20.16
2019-05-15T01:58:37.998Z,20.18
2019-05-15T01:59:52.789Z,20.18
2019-05-15T02:00:43.856Z,20.12
2019-05-15T02:01:48.504Z,20.18
2019-05-15T02:02:50.794Z,20.12
2019-05-15T02:03:52.621Z,20.12
2019-05-15T02:04:55.065Z,20.10
2019-05-15T02:05:58.622Z,20.18
2019-05-15T02:07:01.462Z,20.23
2019-05-15T02:08:04.018Z,20.21
2019-05-15T02:09:08.352Z,20.38
2019-05-15T02:10:10.872Z,20.35
2019-05-15T02:11:13.760Z,20.32
2019-05-15T02:12:16.021Z,20.46
2019-05-15T02:13:18.673Z,20.30
2019-05-15T02:14:20.999Z,20.31
2019-05-15T02:15:24.397Z,20.16
2019-05-15T02:16:28.628Z,20.16
2019-05-15T02:17:30.768Z,20.20
2019-05-15T02:18:34.418Z,20.31
2019-05-15T02:19:39.017Z,20.19
2019-05-15T02:20:41.268Z,20.21
2019-05-15T02:21:43.645Z,20.21
2019-05-15T02:22:48.385Z,20.26
2019-05-15T02:23:50.400Z,20.41
2019-05-15T02:24:54.819Z,20.41
2019-05-15T02:25:58.846Z,20.25
2019-05-15T02:27:02.204Z,20.28
2019-05-15T02:28:03.912Z,20.40
2019-05-15T02:29:07.761Z,20.28
2019-05-15T02:30:22.670Z,20.39
2019-05-15T02:31:14.598Z,20.31
2019-05-15T02:32:19.270Z,20.18
2019-05-15T02:33:21.129Z,20.24
2019-05-15T02:34:23.404Z,20.13
2019-05-15T02:35:25.769Z,20.25
2019-05-15T02:36:29.394Z,20.17
2019-05-15T02:37:32.895Z,20.20
2019-05-15T02:38:35.560Z,20.19
2019-05-15T02:39:38.834Z,20.19
2019-05-15T02:40:41.745Z,20.31
2019-05-15T02:41:44.416Z,20.38
2019-05-15T02:42:49.303Z,20.35
2019-05-15T02:43:51.024Z,20.36
2019-05-15T02:44:53.301Z,20.21
2019-05-15T02:45:55.810Z,20.24
2019-05-15T02:46:58.831Z,20.13
2019-05-15T02:48:01.638Z,20.15
2019-05-15T02:49:03.912Z,20.33
2019-05-15T02:50:10.717Z,20.10
2019-05-15T02:51:11.260Z,20.14
2019-05-15T02:52:13.052Z,20.16
2019-05-15T02:53:18.986Z,20.15
2019-05-15T02:54:21.521Z,20.17
2019-05-15T02:55:23.819Z,20.23
2019-05-15T02:56:29.091Z,20.30
2019-05-15T02:57:30.293Z,20.10
2019-05-15T02:58:33.017Z,20.14
2019-05-15T02:59:35.314Z,20.19
2019-05-15T03:00:47.001Z,20.30
2019-05-15T03:01:42.618Z,20.22
2019-05-15T03:02:44.780Z,20.39
2019-05-15T03:03:49.437Z,20.21
2019-05-15T03:04:52.717Z,20.24
2019-05-15T03:05:55.519Z,20.15
2019-05-15T03:07:00.353Z,20.25
2019-05-15T03:08:01.970Z,20.26
2019-05-15T03:09:04.873Z,20.12
2019-05-15T03:10:09.395Z,20.14
2019-05-15T03:11:12.224Z,20.15
2019-05-15T03:12:14.199Z,20.23
2019-05-15T03:13:18.895Z,20.30
2019-05-15T03:14:21.593Z,20.26
2019-05-15T03:15:24.694Z,20.37
2019-05-15T03:16:30.456Z,20.31
2019-05-15T03:17:31.557Z,20.43
2019-05-15T03:18:34.180Z,20.19
2019-05-15T03:19:39.355Z,20.28
2019-05-15T03:20:41.322Z,20.22
2019-05-15T03:21:43.305Z,20.26
2019-05-15T03:22:45.528Z,20.39
2019-05-15T03:23:50.715Z,20.40
2019-05-15T03:24:51.526Z,20.20
2019-05-15T03:25:53.935Z,20.26
2019-05-15T03:26:59.051Z,20.21
2019-05-15T03:28:00.184Z,20.35
2019-05-15T03:29:02.606Z,20.33
2019-05-15T03:30:05.801Z,20.30
2019-05-15T03:31:25.845Z,20.29
2019-05-15T03:32:25.512Z,20.32
2019-05-15T03:33:25.699Z,20.22
2019-05-15T03:34:28.405Z,20.19
2019-05-15T03:35:25.133Z,20.10
2019-05-15T03:36:31.528Z,20.15
2019-05-15T03:37:34.690Z,20.27
2019-05-15T03:38:39.390Z,20.13
2019-05-15T03:39:41.532Z,20.20
2019-05-15T03:40:43.972Z,20.13
2019-05-15T03:41:49.688Z,20.22
2019-05-15T03:42:52.016Z,20.33
2019-05-15T03:43:54.273Z,20.23
2019-05-15T03:44:59.697Z,20.38
2019-05-15T03:46:01.748Z,20.27
2019-05-15T03:47:04.530Z,20.23
2019-05-15T03:48:09.255Z,20.27
2019-05-15T03:49:11.903Z,20.25
2019-05-15T03:50:14.441Z,20.11
2019-05-15T03:51:19.859Z,20.08
2019-05-15T03:52:21.830Z,20.16
2019-05-15T03:53:25.013Z,20.11
2019-05-15T03:54:29.381Z,20.18
2019-05-15T03:55:31.545Z,20.26
2019-05-15T03:56:39.023Z,20.34
2019-05-15T03:57:40.531Z,20.25
2019-05-15T03:58:44.154Z,20.22
2019-05-15T03:59:48.957Z,20.24
2019-05-15T04:00:50.180Z,20.19
2019-05-15T04:01:52.594Z,20.23
2019-05-15T04:02:55.160Z,20.28
2019-05-15T04:03:59.877Z,20.30
2019-05-15T04:05:02.363Z,20.26
2019-05-15T04:06:05.213Z,20.28
2019-05-15T04:07:09.232Z,20.43
2019-05-15T04:08:11.902Z,20.37
2019-05-15T04:09:14.444Z,20.39
2019-05-15T04:10:19.769Z,20.40
2019-05-15T04:11:20.930Z,20.25
2019-05-15T04:12:23.477Z,20.27
2019-05-15T04:13:25.936Z,20.46
2019-05-15T04:14:29.624Z,20.37
2019-05-15T04:15:32.102Z,20.28
2019-05-15T04:16:34.849Z,20.36
2019-05-15T04:17:40.099Z,20.26
2019-05-15T04:18:42.185Z,20.32
2019-05-15T04:19:44.552Z,20.45
2019-05-15T04:20:49.299Z,20.35
2019-05-15T04:21:50.711Z,20.43
2019-05-15T04:22:53.247Z,20.25
2019-05-15T04:23:58.785Z,20.37
2019-05-15T04:25:03.049Z,20.41
2019-05-15T04:26:09.346Z,20.37
2019-05-15T04:27:12.030Z,20.29
2019-05-15T04:28:19.300Z,20.41
2019-05-15T04:29:21.900Z,20.47
2019-05-15T04:30:24.217Z,20.50
2019-05-15T04:31:29.723Z,20.35
2019-05-15T04:32:30.945Z,20.24
2019-05-15T04:33:33.288Z,20.27
2019-05-15T04:34:39.456Z,20.28
2019-05-15T04:35:41.016Z,20.30
2019-05-15T04:36:45.435Z,20.40
2019-05-15T04:37:49.440Z,20.38
2019-05-15T04:38:52.084Z,20.32
2019-05-15T04:39:54.437Z,20.29
2019-05-15T04:40:58.881Z,20.12
2019-05-15T04:42:01.115Z,20.10
2019-05-15T04:43:02.909Z,20.01
2019-05-15T04:44:05.149Z,19.95
2019-05-15T04:45:10.002Z,19.88
2019-05-15T04:46:13.077Z,19.89
2019-05-15T04:47:19.016Z,19.88
2019-05-15T04:48:20.279Z,19.89
2019-05-15T04:49:23.255Z,19.69
2019-05-15T04:50:28.448Z,19.82
2019-05-15T04:51:30.652Z,19.81
2019-05-15T04:52:33.318Z,19.74
2019-05-15T04:53:39.114Z,19.89
2019-05-15T04:54:40.949Z,19.93
2019-05-15T04:55:44.905Z,19.85
2019-05-15T04:56:48.935Z,19.86
2019-05-15T04:57:51.601Z,19.92
2019-05-15T04:58:53.978Z,19.94
2019-05-15T04:59:58.718Z,19.87
2019-05-15T05:01:01.113Z,19.85
2019-05-15T05:02:26.328Z,19.80
2019-05-15T05:03:10.176Z,19.82
2019-05-15T05:04:12.951Z,19.75
2019-05-15T05:05:18.785Z,19.74
2019-05-15T05:06:20.264Z,19.88
2019-05-15T05:07:22.463Z,19.78
2019-05-15T05:08:25.258Z,19.89
2019-05-15T05:09:28.966Z,19.77
2019-05-15T05:10:31.542Z,19.85
2019-05-15T05:11:38.224Z,19.89
2019-05-15T05:12:42.673Z,19.96
2019-05-15T05:13:44.737Z,20.03
2019-05-15T05:14:48.439Z,19.90
2019-05-15T05:15:50.761Z,19.83
2019-05-15T05:16:53.569Z,19.84
2019-05-15T05:17:58.421Z,20.02
2019-05-15T05:18:59.761Z,20.00
2019-05-15T05:20:07.861Z,19.93
2019-05-15T05:21:09.754Z,19.95
2019-05-15T05:22:12.004Z,20.03
2019-05-15T05:23:14.553Z,20.13
2019-05-15T05:24:18.547Z,20.08
2019-05-15T05:25:20.856Z,20.21
2019-05-15T05:26:23.166Z,20.20
2019-05-15T05:27:25.528Z,20.07
2019-05-15T05:28:29.012Z,20.05
2019-05-15T05:29:32.758Z,20.09
2019-05-15T05:30:34.576Z,20.16
2019-05-15T05:31:39.188Z,20.09
2019-05-15T05:32:41.994Z,19.97
2019-05-15T05:33:44.372Z,20.10
2019-05-15T05:34:48.296Z,20.02
2019-05-15T05:35:52.680Z,20.10
2019-05-15T05:36:55.087Z,20.03
2019-05-15T05:37:58.336Z,20.12
2019-05-15T05:39:01.636Z,20.00
2019-05-15T05:40:07.880Z,20.07
2019-05-15T05:41:09.885Z,20.03
2019-05-15T05:42:12.241Z,20.06
2019-05-15T05:43:14.492Z,20.03
2019-05-15T05:44:18.881Z,19.93
2019-05-15T05:45:21.696Z,19.93
2019-05-15T05:46:23.399Z,19.95
2019-05-15T05:47:25.585Z,19.97
2019-05-15T05:48:29.332Z,19.84
2019-05-15T05:49:31.917Z,19.87
2019-05-15T05:50:43.909Z,20.07
2019-05-15T05:51:44.577Z,20.14
2019-05-15T05:52:49.050Z,20.07
2019-05-15T05:53:51.613Z,20.11
2019-05-15T05:54:53.993Z,20.19
2019-05-15T05:55:58.068Z,20.18
2019-05-15T05:57:00.872Z,20.19
2019-05-15T05:58:04.359Z,20.04
2019-05-15T05:59:09.162Z,20.14
2019-05-15T06:00:11.841Z,20.07
2019-05-15T06:01:14.348Z,20.14
2019-05-15T06:02:18.602Z,20.10
2019-05-15T06:03:22.715Z,20.22
2019-05-15T06:04:24.616Z,20.21
2019-05-15T06:05:28.105Z,20.20
2019-05-15T06:06:30.654Z,20.17
2019-05-15T06:07:35.480Z,20.15
2019-05-15T06:08:38.946Z,20.03
2019-05-15T06:09:42.903Z,20.11
2019-05-15T06:10:45.295Z,20.09
2019-05-15T06:11:50.728Z,20.08
2019-05-15T06:12:53.292Z,20.03
2019-05-15T06:13:58.237Z,19.87
2019-05-15T06:15:00.013Z,19.99
2019-05-15T06:16:02.478Z,20.03
2019-05-15T06:17:04.962Z,20.02
2019-05-15T06:18:08.439Z,19.99
2019-05-15T06:19:11.010Z,20.03
2019-05-15T06:20:13.998Z,19.94
2019-05-15T06:21:17.923Z,19.91
2019-05-15T06:22:20.516Z,19.78
2019-05-15T06:23:25.785Z,19.73
2019-05-15T06:24:30.629Z,19.68
2019-05-15T06:25:32.503Z,19.51
2019-05-15T06:26:35.894Z,19.58
2019-05-15T06:27:38.965Z,19.62
2019-05-15T06:28:41.632Z,19.58
2019-05-15T06:29:45.087Z,19.71
2019-05-15T06:30:48.831Z,19.74
2019-05-15T06:31:51.854Z,19.76
2019-05-15T06:33:05.664Z,19.81
2019-05-15T06:33:58.745Z,19.88
2019-05-15T06:35:01.885Z,19.89
2019-05-15T06:36:04.530Z,19.99
2019-05-15T06:37:08.366Z,19.93
2019-05-15T06:38:10.936Z,19.92
2019-05-15T06:39:13.512Z,19.96
2019-05-15T06:40:18.309Z,19.97
2019-05-15T06:41:22.736Z,20.05
2019-05-15T06:42:28.350Z,20.14
2019-05-15T06:43:30.809Z,20.22
2019-05-15T06:44:33.156Z,20.26
2019-05-15T06:45:37.884Z,20.32
2019-05-15T06:46:40.990Z,20.33
2019-05-15T06:47:43.507Z,20.39
2019-05-15T06:48:48.445Z,20.41
2019-05-15T06:49:50.398Z,20.49
2019-05-15T06:50:53.083Z,20.52
2019-05-15T06:51:54.883Z,20.55
2019-05-15T06:52:58.754Z,20.54
2019-05-15T06:54:01.582Z,20.53
2019-05-15T06:55:09.430Z,20.57
2019-05-15T06:56:11.945Z,20.40
2019-05-15T06:57:14.634Z,20.43
2019-05-15T06:58:19.185Z,20.51
2019-05-15T06:59:21.047Z,20.56
2019-05-15T07:00:23.884Z,20.63
2019-05-15T07:01:25.951Z,20.56
2019-05-15T07:02:28.672Z,20.71
2019-05-15T07:03:31.071Z,20.71
2019-05-15T07:04:33.666Z,20.69
2019-05-15T07:05:38.464Z,20.70
2019-05-15T07:06:40.364Z,20.77
2019-05-15T07:07:43.829Z,20.73
2019-05-15T07:08:49.299Z,20.69
2019-05-15T07:09:51.224Z,20.77
2019-05-15T07:10:57.884Z,20.65
2019-05-15T07:12:01.908Z,20.68
2019-05-15T07:13:05.180Z,20.64
2019-05-15T07:14:08.885Z,20.71
2019-05-15T07:15:12.167Z,20.68
2019-05-15T07:16:14.791Z,20.68
2019-05-15T07:17:17.830Z,20.80
2019-05-15T07:18:20.316Z,20.81
2019-05-15T07:19:22.861Z,20.75
2019-05-15T07:20:28.336Z,20.65
2019-05-15T07:21:31.813Z,20.63
2019-05-15T07:22:34.597Z,20.66
2019-05-15T07:23:38.653Z,20.61
2019-05-15T07:24:41.228Z,20.65
2019-05-15T07:25:45.586Z,20.55
2019-05-15T07:26:48.596Z,20.57
2019-05-15T07:27:52.329Z,20.62
2019-05-15T07:28:56.637Z,20.68
2019-05-15T07:29:58.967Z,20.86
2019-05-15T07:31:02.279Z,20.95
2019-05-15T07:32:05.163Z,20.84
2019-05-15T07:33:08.786Z,20.95
2019-05-15T07:34:11.004Z,20.86
2019-05-15T07:35:14.291Z,20.95
2019-05-15T07:36:19.135Z,20.96
2019-05-15T07:37:20.321Z,20.92
2019-05-15T07:38:22.695Z,20.84
2019-05-15T07:39:24.846Z,20.76
2019-05-15T07:40:29.342Z,20.72
2019-05-15T07:41:32.420Z,20.52
2019-05-15T07:42:38.706Z,20.65
2019-05-15T07:43:40.775Z,20.50
2019-05-15T07:44:43.161Z,20.58
2019-05-15T07:45:52.389Z,20.73
2019-05-15T07:46:49.383Z,20.76
2019-05-15T07:47:52.078Z,20.84
2019-05-15T07:48:54.365Z,20.86
2019-05-15T07:49:58.901Z,20.83
2019-05-15T07:51:01.411Z,20.74
2019-05-15T07:52:04.885Z,20.78
2019-05-15T07:53:09.482Z,20.70
2019-05-15T07:54:11.667Z,20.60
2019-05-15T07:55:13.870Z,20.76
2019-05-15T07:56:18.170Z,20.76
2019-05-15T07:57:22.520Z,20.76
2019-05-15T07:58:24.791Z,20.67
2019-05-15T07:59:27.978Z,20.58
2019-05-15T08:00:30.584Z,20.57
2019-05-15T08:01:32.933Z,20.66
2019-05-15T08:02:35.121Z,20.60
2019-05-15T08:03:47.178Z,20.73
2019-05-15T08:04:42.178Z,20.80
2019-05-15T08:05:57.972Z,20.83
2019-05-15T08:06:50.842Z,20.70
2019-05-15T08:07:53.318Z,20.67
2019-05-15T08:08:56.007Z,20.80
2019-05-15T08:09:59.167Z,20.86
2019-05-15T08:11:16.147Z,20.75
2019-05-15T08:12:08.355Z,20.87
2019-05-15T08:13:10.555Z,20.72
2019-05-15T08:14:15.487Z,20.79
2019-05-15T08:15:19.385Z,20.89
2019-05-15T08:16:22.534Z,20.82
2019-05-15T08:17:25.180Z,20.80
2019-05-15T08:18:28.565Z,20.81
2019-05-15T08:19:32.742Z,20.78
2019-05-15T08:20:35.105Z,20.66
2019-05-15T08:21:38.526Z,20.70
2019-05-15T08:22:41.395Z,20.67
2019-05-15T08:23:44.308Z,20.66
2019-05-15T08:24:48.450Z,20.68
2019-05-15T08:25:51.660Z,20.64
2019-05-15T08:26:54.070Z,20.63
2019-05-15T08:27:58.839Z,20.51
2019-05-15T08:29:01.525Z,20.48
2019-05-15T08:30:08.773Z,20.46
2019-05-15T08:31:10.631Z,20.39
2019-05-15T08:32:13.464Z,20.41
2019-05-15T08:33:17.784Z,20.44
2019-05-15T08:34:20.348Z,20.45
2019-05-15T08:35:22.932Z,20.22
2019-05-15T08:36:27.698Z,20.26
2019-05-15T08:37:30.716Z,20.18
2019-05-15T08:38:33.327Z,20.14
2019-05-15T08:39:38.019Z,20.13
2019-05-15T08:40:41.177Z,20.14
2019-05-15T08:41:44.205Z,20.24
2019-05-15T08:42:56.802Z,20.21
2019-05-15T08:43:51.851Z,20.34
2019-05-15T08:44:54.127Z,20.33
2019-05-15T08:45:58.632Z,20.32
2019-05-15T08:47:01.389Z,20.48
2019-05-15T08:48:04.008Z,20.46
2019-05-15T08:49:05.933Z,20.41
2019-05-15T08:50:09.529Z,20.57
2019-05-15T08:51:13.055Z,20.52
2019-05-15T08:52:15.894Z,20.61
2019-05-15T08:53:19.568Z,20.55
2019-05-15T08:54:22.784Z,20.53
2019-05-15T08:55:28.047Z,20.59
2019-05-15T08:56:30.264Z,20.66
2019-05-15T08:57:33.071Z,20.68
2019-05-15T08:58:38.171Z,20.71
2019-05-15T08:59:40.723Z,20.59
2019-05-15T09:00:44.177Z,20.69
2019-05-15T09:01:48.791Z,20.60
2019-05-15T09:02:50.958Z,20.58
2019-05-15T09:03:53.649Z,20.50
2019-05-15T09:04:58.076Z,20.64
2019-05-15T09:06:01.886Z,20.67
2019-05-15T09:07:03.952Z,20.71
2019-05-15T09:08:09.315Z,20.72
2019-05-15T09:09:12.577Z,20.65
2019-05-15T09:10:18.410Z,20.57
2019-05-15T09:11:20.876Z,20.67
2019-05-15T09:12:23.260Z,20.68
2019-05-15T09:13:26.106Z,20.56
2019-05-15T09:14:29.311Z,20.61
2019-05-15T09:15:33.269Z,20.47
2019-05-15T09:16:38.535Z,20.62
2019-05-15T09:17:40.832Z,20.57
2019-05-15T09:18:43.157Z,20.55
2019-05-15T09:19:45.549Z,20.70
2019-05-15T09:20:49.133Z,20.67
2019-05-15T09:21:51.997Z,20.87
2019-05-15T09:22:54.642Z,20.74
2019-05-15T09:23:58.887Z,20.76
2019-05-15T09:25:01.952Z,20.88
2019-05-15T09:26:05.200Z,20.95
2019-05-15T09:27:09.856Z,20.85
2019-05-15T09:28:12.317Z,20.90
2019-05-15T09:29:14.799Z,21.00
2019-05-15T09:30:18.231Z,20.92
2019-05-15T09:31:21.347Z,21.02
2019-05-15T09:32:23.983Z,20.99
2019-05-15T09:33:28.572Z,21.02
2019-05-15T09:34:46.723Z,21.04
2019-05-15T09:35:35.267Z,21.06
2019-05-15T09:36:40.275Z,21.06
2019-05-15T09:37:42.689Z,21.10
2019-05-15T09:38:45.125Z,21.12
2019-05-15T09:39:48.975Z,21.28
2019-05-15T09:40:52.119Z,21.17
2019-05-15T09:41:54.675Z,21.10
2019-05-15T09:42:58.215Z,21.16
2019-05-15T09:44:01.388Z,21.23
2019-05-15T09:45:08.919Z,21.23
2019-05-15T09:46:11.061Z,21.14
2019-05-15T09:47:13.831Z,21.21
2019-05-15T09:48:19.244Z,21.08
2019-05-15T09:49:22.573Z,21.12
2019-05-15T09:50:25.497Z,21.09
2019-05-15T09:51:29.042Z,21.26
2019-05-15T09:52:33.124Z,21.14
2019-05-15T09:53:35.875Z,21.08
2019-05-15T09:54:38.847Z,21.20
2019-05-15T09:55:41.678Z,21.09
2019-05-15T09:56:44.993Z,21.13
2019-05-15T09:57:49.053Z,21.15
2019-05-15T09:58:51.856Z,21.26
2019-05-15T09:59:54.458Z,21.21
2019-05-15T10:00:57.011Z,21.28
2019-05-15T10:01:59.430Z,21.22
2019-05-15T10:03:04.206Z,21.22
2019-05-15T10:04:08.323Z,21.17
2019-05-15T10:05:11.788Z,21.11
2019-05-15T10:06:14.364Z,21.08
2019-05-15T10:07:19.121Z,21.16
2019-05-15T10:08:21.726Z,21.15
2019-05-15T10:09:24.504Z,21.13
2019-05-15T10:10:28.431Z,21.23
2019-05-15T10:11:31.636Z,21.24
2019-05-15T10:12:35.077Z,21.23
2019-05-15T10:13:39.658Z,21.13
2019-05-15T10:14:42.417Z,21.12
2019-05-15T10:15:48.334Z,21.15
2019-05-15T10:16:49.851Z,21.27
2019-05-15T10:17:52.398Z,21.22
2019-05-15T10:18:54.142Z,21.25
2019-05-15T10:19:59.064Z,21.22
2019-05-15T10:21:02.290Z,21.12
2019-05-15T10:22:04.541Z,21.21
2019-05-15T10:23:08.766Z,21.14
2019-05-15T10:24:12.479Z,21.07
2019-05-15T10:25:18.810Z,21.25
2019-05-15T10:26:22.640Z,21.18
2019-05-15T10:27:25.541Z,21.08
2019-05-15T10:28:29.375Z,21.03
2019-05-15T10:29:32.291Z,20.93
2019-05-15T10:30:35.731Z,20.95
2019-05-15T10:31:38.902Z,21.00
2019-05-15T10:32:43.538Z,21.14
2019-05-15T10:33:49.208Z,21.25
2019-05-15T10:34:51.503Z,21.21
2019-05-15T10:35:55.104Z,21.18
2019-05-15T10:36:59.014Z,21.17
2019-05-15T10:38:03.610Z,21.27
2019-05-15T10:39:08.480Z,21.14
2019-05-15T10:40:10.960Z,21.23
2019-05-15T10:41:15.144Z,21.19
2019-05-15T10:42:19.318Z,21.27
2019-05-15T10:43:21.337Z,21.23
2019-05-15T10:44:23.768Z,21.18
2019-05-15T10:45:29.353Z,21.18
2019-05-15T10:46:31.654Z,21.23
2019-05-15T10:47:33.854Z,21.31
2019-05-15T10:48:38.383Z,21.31
2019-05-15T10:49:40.033Z,21.39
2019-05-15T10:50:42.723Z,21.41
2019-05-15T10:51:44.746Z,21.40
2019-05-15T10:52:48.963Z,21.17
2019-05-15T10:53:54.345Z,21.24
2019-05-15T10:54:58.166Z,21.20
2019-05-15T10:56:03.049Z,21.35
2019-05-15T10:57:08.549Z,21.28
2019-05-15T10:58:16.569Z,21.30
2019-05-15T10:59:14.308Z,21.24
2019-05-15T11:00:19.488Z,21.25
2019-05-15T11:01:21.366Z,21.23
2019-05-15T11:02:24.307Z,21.23
2019-05-15T11:03:26.677Z,21.30
2019-05-15T11:04:29.061Z,21.36
2019-05-15T11:05:44.619Z,21.43
2019-05-15T11:06:38.507Z,21.46
2019-05-15T11:07:41.506Z,21.49
2019-05-15T11:08:43.770Z,21.55
2019-05-15T11:09:48.738Z,21.67
2019-05-15T11:10:50.294Z,21.78
2019-05-15T11:11:52.624Z,21.72
2019-05-15T11:12:55.145Z,21.59
2019-05-15T11:14:00.248Z,21.64
2019-05-15T11:15:11.058Z,21.60
2019-05-15T11:16:11.684Z,21.58
2019-05-15T11:17:14.214Z,21.72
2019-05-15T11:18:16.413Z,21.72
2019-05-15T11:19:18.809Z,21.65
2019-05-15T11:20:23.069Z,21.68
2019-05-15T11:21:27.262Z,21.73
2019-05-15T11:22:30.172Z,21.72
2019-05-15T11:23:32.575Z,21.65
2019-05-15T11:24:38.353Z,21.64
2019-05-15T11:25:39.391Z,21.76
2019-05-15T11:26:41.743Z,21.75
2019-05-15T11:27:44.529Z,21.69
2019-05-15T11:28:49.733Z,21.62
2019-05-15T11:29:52.246Z,21.47
2019-05-15T11:30:54.594Z,21.54
2019-05-15T11:31:58.060Z,21.59
2019-05-15T11:33:02.507Z,21.58
2019-05-15T11:34:05.134Z,21.52
2019-05-15T11:35:11.711Z,21.49
2019-05-15T11:36:14.065Z,21.47
2019-05-15T11:37:18.760Z,21.39
2019-05-15T11:38:21.133Z,21.33
2019-05-15T11:39:24.240Z,21.35
2019-05-15T11:40:28.412Z,21.22
2019-05-15T11:41:30.886Z,21.26
2019-05-15T11:42:32.766Z,21.23
2019-05-15T11:43:38.274Z,21.05
2019-05-15T11:44:42.043Z,21.11
2019-05-15T11:45:44.786Z,21.03
2019-05-15T11:46:50.488Z,20.94
2019-05-15T11:47:54.240Z,20.93
2019-05-15T11:48:58.731Z,20.82
2019-05-15T11:50:03.755Z,20.86
2019-05-15T11:51:09.488Z,20.83
2019-05-15T11:52:11.444Z,20.76
2019-05-15T11:53:14.205Z,20.73
2019-05-15T11:54:19.155Z,20.76
2019-05-15T11:55:20.467Z,20.93
2019-05-15T11:56:23.780Z,20.81
2019-05-15T11:57:39.134Z,20.78
2019-05-15T11:58:31.850Z,20.92
2019-05-15T11:59:43.671Z,20.86
2019-05-15T12:00:39.904Z,21.03
2019-05-15T12:01:42.327Z,20.99
2019-05-15T12:02:46.767Z,21.01
2019-05-15T12:03:48.866Z,21.10
2019-05-15T12:04:52.061Z,21.22
2019-05-15T12:05:54.921Z,21.12
2019-05-15T12:06:59.726Z,21.17
2019-05-15T12:08:02.265Z,21.21
2019-05-15T12:09:08.928Z,21.01
2019-05-15T12:10:11.142Z,21.00
2019-05-15T12:11:28.759Z,21.03
2019-05-15T12:12:19.304Z,21.06
2019-05-15T12:13:23.758Z,21.06
2019-05-15T12:14:29.453Z,21.03
2019-05-15T12:15:32.734Z,21.00
2019-05-15T12:16:36.283Z,21.08
2019-05-15T12:17:39.328Z,21.08
2019-05-15T12:18:41.792Z,21.01
2019-05-15T12:19:54.904Z,20.95
2019-05-15T12:20:49.433Z,20.86
2019-05-15T12:21:55.450Z,20.86
2019-05-15T12:22:59.439Z,20.75
2019-05-15T12:24:04.121Z,20.87
2019-05-15T12:25:09.752Z,20.81
2019-05-15T12:26:13.420Z,20.83
2019-05-15T12:27:18.397Z,20.80
2019-05-15T12:28:20.286Z,20.61
2019-05-15T12:29:22.963Z,20.75
2019-05-15T12:30:29.420Z,20.68
2019-05-15T12:31:33.317Z,20.79
2019-05-15T12:32:37.664Z,20.77
2019-05-15T12:33:39.584Z,20.73
2019-05-15T12:34:41.476Z,20.84
2019-05-15T12:35:43.968Z,20.80
2019-05-15T12:36:56.835Z,20.87
2019-05-15T12:37:52.174Z,20.72
2019-05-15T12:38:54.703Z,20.93
2019-05-15T12:59:44.821Z,21.27
2019-05-15T13:00:32.772Z,21.21
2019-05-15T13:01:35.798Z,21.23
2019-05-15T13:02:39.297Z,21.18
2019-05-15T13:03:42.006Z,21.08
2019-05-15T13:04:44.106Z,21.01
2019-05-15T13:05:48.564Z,21.00
2019-05-15T13:07:10.445Z,20.83
2019-05-15T13:07:59.579Z,20.95
2019-05-15T13:09:05.241Z,20.95
2019-05-15T13:10:08.977Z,20.98
2019-05-15T13:11:15.202Z,21.01
2019-05-15T13:12:21.679Z,20.95
2019-05-15T13:13:24.270Z,20.98
2019-05-15T13:14:28.533Z,21.12
2019-05-15T13:15:31.086Z,21.13
2019-05-15T13:16:33.985Z,21.16
2019-05-15T13:17:38.765Z,21.15
2019-05-15T13:18:41.298Z,21.12
2019-05-15T13:19:44.410Z,21.07
2019-05-15T13:20:48.991Z,21.09
2019-05-15T13:21:52.128Z,21.02
2019-05-15T13:22:54.982Z,21.03
2019-05-15T13:23:58.964Z,21.02
2019-05-15T13:25:02.720Z,20.98
2019-05-15T13:26:21.504Z,20.97
2019-05-15T13:27:11.000Z,21.04
2019-05-15T13:28:13.887Z,21.07
2019-05-15T13:29:24.582Z,21.17
2019-05-15T13:30:27.239Z,21.19
2019-05-15T13:31:29.524Z,21.10
2019-05-15T13:32:31.720Z,20.98
2019-05-15T13:33:35.246Z,21.13
2019-05-15T13:34:39.212Z,21.10
2019-05-15T13:35:42.248Z,21.17
2019-05-15T13:36:44.306Z,21.12
2019-05-15T13:37:49.434Z,21.04
2019-05-15T13:38:54.095Z,21.11
2019-05-15T13:39:58.561Z,21.10
2019-05-15T13:41:01.203Z,20.99
2019-05-15T13:42:04.685Z,21.00
2019-05-15T13:43:08.363Z,21.04
2019-05-15T13:44:11.727Z,21.01
2019-05-15T13:45:15.055Z,20.97
2019-05-15T13:46:20.694Z,20.93
2019-05-15T13:47:24.964Z,20.90
2019-05-15T13:48:29.528Z,20.91
2019-05-15T13:49:31.895Z,20.78
2019-05-15T13:50:40.447Z,20.88
2019-05-15T13:51:42.311Z,20.83
2019-05-15T13:52:45.157Z,20.86
2019-05-15T13:53:49.057Z,20.87
2019-05-15T13:54:53.391Z,20.90